Time;durP1;ratioP1;P1;durP2;ratioP2;P2;SDS_P1;SDS_P2;PMS_P1;PMS_P2;Temp;Humidity;BMP_temperature;BMP_pressure;BME280_temperature;BME280_humidity;BME280_pressure;Samples;Min_cycle;Max_cycle;Signal;HPM_P1;HPM_P2
2022/04/28 00:01:03;;;;;;;10.00;6.07;;;;;;;12.81;41.74;102740.59;6337069;22;20018;-62
2022/04/28 00:03:30;;;;;;;12.48;5.97;;;;;;;12.77;41.77;102741.72;6336690;22;20015;-63
2022/04/28 00:05:57;;;;;;;12.95;5.88;;;;;;;12.73;41.82;102748.19;6337429;22;20014;-63
2022/04/28 00:08:24;;;;;;;10.25;6.32;;;;;;;12.69;42.27;102746.59;6336763;22;20406;-63
2022/04/28 00:10:52;;;;;;;12.70;6.63;;;;;;;12.63;42.19;102741.50;6336280;22;20007;-63
2022/04/28 00:13:19;;;;;;;10.23;6.22;;;;;;;12.58;42.08;102749.81;6336496;22;20089;-63
2022/04/28 00:15:45;;;;;;;13.20;7.22;;;;;;;12.54;42.26;102736.56;6336641;22;20445;-63
2022/04/28 00:18:12;;;;;;;10.48;6.38;;;;;;;12.52;42.54;102751.94;6338059;22;20018;-62
2022/04/28 00:20:42;;;;;;;10.75;6.65;;;;;;;12.47;42.43;102745.88;6311485;22;20049;-62
2022/04/28 00:23:09;;;;;;;12.30;6.47;;;;;;;12.44;42.45;102751.44;6338096;22;20014;-63
2022/04/28 00:25:36;;;;;;;11.35;6.50;;;;;;;12.39;42.20;102757.03;6338680;22;20017;-62
2022/04/28 00:28:02;;;;;;;8.98;5.78;;;;;;;12.34;42.46;102757.25;6338309;22;20344;-63
2022/04/28 00:30:33;;;;;;;12.38;6.13;;;;;;;12.31;42.53;102752.03;6311096;22;20026;-63
2022/04/28 00:33:00;;;;;;;7.55;5.97;;;;;;;12.28;42.54;102752.16;6310944;22;20015;-63
2022/04/28 00:35:26;;;;;;;11.20;6.32;;;;;;;12.26;42.69;102756.75;6338049;22;20299;-63
2022/04/28 00:37:53;;;;;;;12.95;5.97;;;;;;;12.22;42.89;102748.91;6338489;22;20396;-63
2022/04/28 00:40:24;;;;;;;12.40;6.20;;;;;;;12.20;42.86;102748.09;6337432;22;20021;-63
2022/04/28 00:42:50;;;;;;;12.90;6.50;;;;;;;12.18;42.77;102750.00;6337880;22;20475;-63
2022/04/28 00:45:17;;;;;;;8.93;5.95;;;;;;;12.14;42.79;102751.09;6337330;22;20015;-63
2022/04/28 00:50:40;;;;;;;13.43;7.20;;;;;;;12.09;42.87;102748.59;6310419;22;20018;-63
2022/04/28 00:53:13;;;;;;;10.48;6.05;;;;;;;12.06;42.92;102746.06;6310231;22;20019;-62
2022/04/28 00:55:41;;;;;;;11.00;6.53;;;;;;;12.01;42.93;102751.66;6310519;22;20015;-62
2022/04/28 00:58:10;;;;;;;12.85;6.53;;;;;;;11.99;43.05;102749.97;6310361;22;20015;-63
2022/04/28 01:00:40;;;;;;;10.40;6.65;;;;;;;11.94;43.10;102755.59;6309873;22;20094;-63
2022/04/28 01:03:09;;;;;;;10.73;6.82;;;;;;;11.93;43.31;102750.28;6309930;22;20019;-63
2022/04/28 01:05:36;;;;;;;10.00;6.40;;;;;;;11.89;43.00;102752.22;6337848;22;20021;-63
2022/04/28 01:08:03;;;;;;;10.40;6.80;;;;;;;11.84;43.15;102756.91;6337619;22;20102;-62
2022/04/28 01:10:35;;;;;;;10.50;6.70;;;;;;;11.79;43.29;102753.56;6337816;22;20408;-62
2022/04/28 01:13:02;;;;;;;11.98;7.30;;;;;;;11.75;43.25;102757.31;6310271;22;20022;-62
2022/04/28 01:15:29;;;;;;;9.40;7.38;;;;;;;11.70;43.24;102757.53;6310602;22;20430;-63
2022/04/28 01:17:56;;;;;;;10.95;7.70;;;;;;;11.66;43.35;102755.91;6309892;22;20042;-63
2022/04/28 01:20:27;;;;;;;10.63;7.30;;;;;;;11.64;43.59;102754.22;6309766;22;20043;-62
2022/04/28 01:22:54;;;;;;;11.85;7.07;;;;;;;11.62;43.57;102751.59;6310246;22;20015;-62
2022/04/28 01:25:20;;;;;;;13.38;6.88;;;;;;;11.59;43.58;102756.25;6338234;22;20029;-62
2022/04/28 01:27:47;;;;;;;9.80;7.13;;;;;;;11.57;43.64;102755.44;6310004;22;20019;-63
2022/04/28 01:30:18;;;;;;;12.82;7.57;;;;;;;11.55;43.77;102760.91;6309353;22;20022;-63
2022/04/28 01:32:49;;;;;;;;;;;;;;;11.50;43.53;102759.34;6310901;22;20026;-62
2022/04/28 01:35:17;;;;;;;11.50;7.18;;;;;;;11.50;43.63;102752.16;6309537;22;19921;-63
2022/04/28 01:37:44;;;;;;;15.05;7.07;;;;;;;11.44;43.61;102752.44;6309896;22;20029;-62
2022/04/28 01:40:18;;;;;;;13.18;7.05;;;;;;;11.40;43.79;102758.91;6309919;22;20041;-63
2022/04/28 01:42:47;;;;;;;15.05;7.22;;;;;;;11.36;43.88;102754.59;6309408;22;20445;-63
2022/04/28 01:45:15;;;;;;;12.35;7.03;;;;;;;11.32;43.99;102751.16;6309544;22;20058;-63
2022/04/28 01:48:08;;;;;;;10.13;7.05;;;;;;;11.29;43.96;102753.13;6332870;22;20518;-63
2022/04/28 01:56:43;;;;;;;15.27;8.18;;;;;;;11.22;44.19;102757.00;6289618;22;20011;-63
2022/04/28 01:59:22;;;;;;;10.90;7.30;;;;;;;11.20;44.20;102765.16;6309445;22;20023;-63
2022/04/28 02:02:21;;;;;;;14.05;7.38;;;;;;;11.17;44.29;102757.22;6331440;22;20031;-64
2022/04/28 02:04:49;;;;;;;11.20;7.25;;;;;;;11.13;44.27;102759.13;6309683;22;20075;-63
2022/04/28 02:07:16;;;;;;;14.27;7.57;;;;;;;11.12;44.39;102754.69;6310007;22;20408;-62
2022/04/28 02:09:43;;;;;;;11.40;7.40;;;;;;;11.11;44.50;102752.06;6309263;22;20373;-63
2022/04/28 02:12:14;;;;;;;10.88;7.18;;;;;;;11.08;44.63;102750.38;6310122;22;20050;-64
2022/04/28 02:15:07;;;;;;;15.38;7.15;;;;;;;11.09;44.47;102768.25;6300460;22;20104;-62
2022/04/28 02:17:52;;;;;;;12.77;7.22;;;;;;;11.09;44.42;102762.88;6313499;22;20106;-63
2022/04/28 02:20:22;;;;;;;11.30;7.07;;;;;;;11.07;44.54;102771.97;6310105;22;20015;-63
2022/04/28 02:22:49;;;;;;;13.10;7.45;;;;;;;11.04;44.51;102767.59;6309189;22;20019;-63
2022/04/28 02:25:16;;;;;;;14.57;7.30;;;;;;;11.03;45.16;102768.53;6336715;22;20017;-63
2022/04/28 02:27:43;;;;;;;12.75;7.47;;;;;;;11.01;44.76;102773.09;6309764;22;20101;-63
2022/04/28 02:35:33;;;;;;;12.13;8.05;;;;;;;10.93;44.66;102764.47;6309761;22;20079;-63
2022/04/28 02:38:01;;;;;;;13.27;7.95;;;;;;;10.91;44.91;102760.97;6310011;22;20079;-63
2022/04/28 02:40:30;;;;;;;13.27;8.15;;;;;;;10.88;44.89;102770.97;6336721;22;20015;-63
2022/04/28 02:43:00;;;;;;;12.88;7.97;;;;;;;10.83;44.94;102766.69;6336680;22;20098;-63
2022/04/28 02:45:28;;;;;;;15.32;7.75;;;;;;;10.81;45.01;102765.00;6310769;22;20049;-63
2022/04/28 02:47:56;;;;;;;11.85;7.57;;;;;;;10.79;45.32;102770.44;6311514;22;20021;-63
2022/04/28 02:50:26;;;;;;;12.45;7.40;;;;;;;10.78;45.19;102770.50;6310663;22;20038;-63
2022/04/28 02:52:53;;;;;;;14.98;8.25;;;;;;;10.78;45.12;102762.44;6310375;22;20011;-63
2022/04/28 02:55:20;;;;;;;19.23;8.70;;;;;;;10.73;45.30;102764.44;6310863;22;20021;-63
2022/04/28 02:57:47;;;;;;;14.20;9.32;;;;;;;10.70;45.22;102765.44;6310747;22;20094;-63
2022/04/28 03:00:18;;;;;;;13.57;8.38;;;;;;;10.66;45.21;102761.13;6310377;22;20296;-63
2022/04/28 03:02:59;;;;;;;13.00;8.13;;;;;;;10.65;45.40;102764.75;6310365;22;20018;-63
2022/04/28 03:05:26;;;;;;;13.60;8.23;;;;;;;10.64;45.43;102760.31;6310202;22;20405;-63
2022/04/28 03:13:12;;;;;;;34.28;8.82;;;;;;;10.61;45.60;102765.81;6337557;22;20467;-64
2022/04/28 03:15:41;;;;;;;16.98;9.43;;;;;;;10.59;45.61;102761.44;6310421;22;20072;-63
2022/04/28 03:18:08;;;;;;;15.75;9.68;;;;;;;10.57;45.62;102766.88;6309727;22;20019;-63
2022/04/28 03:20:36;;;;;;;17.65;8.30;;;;;;;10.57;45.75;102774.06;6309793;22;20433;-63
2022/04/28 03:23:05;;;;;;;16.50;8.30;;;;;;;10.54;45.58;102768.81;6309827;22;20019;-63
2022/04/28 03:25:31;;;;;;;14.93;8.48;;;;;;;10.52;45.78;102776.06;6310232;22;20015;-62
2022/04/28 03:27:58;;;;;;;15.52;8.43;;;;;;;10.48;45.94;102769.94;6310207;22;20445;-64
2022/04/28 03:30:29;;;;;;;15.38;8.52;;;;;;;10.46;46.02;102770.00;6309385;22;20022;-63
2022/04/28 03:33:10;;;;;;;10.18;7.78;;;;;;;10.46;45.82;102771.81;6309477;22;20015;-62
2022/04/28 03:35:36;;;;;;;12.95;7.72;;;;;;;10.45;45.92;102770.06;6337931;22;20098;-63
2022/04/28 03:38:04;;;;;;;18.67;8.98;;;;;;;10.44;45.97;102771.00;6310116;22;20015;-64
2022/04/28 03:40:35;;;;;;;14.50;8.45;;;;;;;10.43;46.13;102767.44;6337555;22;20026;-63
2022/04/28 03:43:03;;;;;;;14.27;8.50;;;;;;;10.43;46.02;102766.56;6309592;22;20067;-63
2022/04/28 03:45:31;;;;;;;12.25;7.78;;;;;;;10.42;46.09;102771.06;6310015;22;20015;-63
2022/04/28 03:47:58;;;;;;;17.02;9.13;;;;;;;10.39;46.15;102770.25;6309376;22;20050;-62
2022/04/28 03:50:30;;;;;;;16.35;8.60;;;;;;;10.35;46.13;102771.31;6310402;22;20049;-63
2022/04/28 03:52:57;;;;;;;13.75;8.52;;;;;;;10.31;46.25;102767.88;6311506;22;20038;-64
2022/04/28 03:55:24;;;;;;;13.98;8.70;;;;;;;10.28;46.30;102768.00;6311921;22;20060;-63
2022/04/28 03:57:51;;;;;;;15.75;8.82;;;;;;;10.25;46.33;102773.50;6339473;22;20019;-62
2022/04/28 04:00:22;;;;;;;16.88;9.75;;;;;;;10.22;46.49;102770.94;6310994;22;20015;-63
2022/04/28 04:02:54;;;;;;;18.58;9.48;;;;;;;10.19;46.42;102777.25;6311797;22;20014;-63
2022/04/28 04:05:22;;;;;;;14.95;8.63;;;;;;;10.18;46.60;102774.63;6338778;22;20102;-62
2022/04/28 04:07:48;;;;;;;13.80;8.25;;;;;;;10.14;46.59;102776.56;6311652;22;20017;-62
2022/04/28 04:10:39;;;;;;;20.77;9.32;;;;;;;10.10;46.58;102780.31;6338368;22;20102;-62
2022/04/28 04:13:06;;;;;;;14.85;8.80;;;;;;;10.09;46.57;102786.59;6339068;22;20015;-63
2022/04/28 04:15:50;;;;;;;14.55;8.50;;;;;;;10.08;46.77;102779.47;6289393;22;20015;-63
2022/04/28 04:18:28;;;;;;;18.33;9.63;;;;;;;10.08;46.79;102783.97;6339189;22;20097;-62
2022/04/28 04:21:13;;;;;;;18.40;9.27;;;;;;;10.09;46.72;102794.66;6311339;22;20090;-63
2022/04/28 04:23:40;;;;;;;15.40;9.13;;;;;;;10.10;46.71;102796.41;6310640;22;20323;-63
2022/04/28 04:26:07;;;;;;;15.98;9.50;;;;;;;10.09;46.79;102799.16;6311338;22;20014;-62
2022/04/28 04:28:35;;;;;;;16.35;8.68;;;;;;;10.09;46.74;102801.84;6286015;22;20018;-62
2022/04/28 04:34:13;;;;;;;18.38;10.18;;;;;;;10.05;46.91;102793.03;6291353;22;20015;-62
2022/04/28 04:36:40;;;;;;;14.95;9.23;;;;;;;10.05;46.99;102789.47;6310964;22;20021;-62
2022/04/28 04:39:08;;;;;;;18.98;10.48;;;;;;;10.05;47.01;102793.03;6311715;22;20094;-62
2022/04/28 04:41:41;;;;;;;20.08;10.32;;;;;;;10.03;46.92;102789.53;6311285;22;20046;-62
2022/04/28 04:44:13;;;;;;;16.17;9.57;;;;;;;10.02;46.98;102790.47;6310290;22;20046;-62
2022/04/28 04:46:44;;;;;;;15.15;9.30;;;;;;;10.00;47.07;102797.69;6311465;22;20342;-63
2022/04/28 04:49:29;;;;;;;16.98;9.50;;;;;;;10.00;47.05;102796.81;6338235;22;20510;-62
2022/04/28 04:52:11;;;;;;;14.13;9.65;;;;;;;10.00;47.21;102805.75;6311126;22;20041;-62
2022/04/28 04:54:58;;;;;;;17.75;9.90;;;;;;;10.00;47.16;102811.09;6337397;22;20068;-63
2022/04/28 04:57:25;;;;;;;18.17;10.23;;;;;;;10.01;47.30;102812.00;6311194;22;20015;-62
2022/04/28 04:59:51;;;;;;;14.45;9.90;;;;;;;10.01;47.41;102807.50;6338505;22;20019;-62
2022/04/28 05:02:23;;;;;;;16.88;9.70;;;;;;;10.03;47.39;102811.00;6310677;22;20049;-62
2022/04/28 05:05:09;;;;;;;16.48;9.65;;;;;;;10.05;47.52;102819.88;6337798;22;20025;-63
2022/04/28 05:07:50;;;;;;;21.00;9.82;;;;;;;10.06;47.69;102824.31;6338865;22;20173;-63
2022/04/28 05:10:20;;;;;;;16.83;9.50;;;;;;;10.09;47.68;102824.19;6310431;22;20023;-63
2022/04/28 05:12:47;;;;;;;18.17;10.85;;;;;;;10.11;47.75;102827.69;6310846;22;20015;-63
2022/04/28 05:15:27;;;;;;;17.58;10.30;;;;;;;10.14;47.73;102830.25;6310860;22;20452;-63
2022/04/28 05:18:09;;;;;;;17.02;9.68;;;;;;;10.16;47.84;102833.75;6311134;22;20464;-63
2022/04/28 05:21:08;;;;;;;18.88;10.50;;;;;;;10.19;47.90;102835.47;6310357;22;20418;-62
2022/04/28 05:24:04;;;;;;;19.60;10.73;;;;;;;10.21;47.96;102835.44;6253749;22;20062;-63
2022/04/28 05:27:10;;;;;;;18.83;10.27;;;;;;;10.23;47.84;102830.88;6337616;22;20025;-63
2022/04/28 05:29:48;;;;;;;22.08;10.68;;;;;;;10.25;48.02;102842.44;6338251;22;20106;-63
2022/04/28 05:32:43;;;;;;;21.48;10.27;;;;;;;10.28;48.10;102851.25;6334792;22;20025;-63
2022/04/28 05:35:29;;;;;;;17.77;10.85;;;;;;;10.30;48.28;102848.50;6338584;22;20069;-63
2022/04/28 05:37:57;;;;;;;18.67;10.88;;;;;;;10.32;48.28;102858.25;6310856;22;20019;-63
2022/04/28 05:40:25;;;;;;;20.75;11.32;;;;;;;10.35;48.36;102859.94;6338247;22;20086;-63
2022/04/28 05:45:41;;;;;;;23.98;11.32;;;;;;;10.45;48.70;102853.31;6337916;22;20014;-63
2022/04/28 05:48:13;;;;;;;18.73;10.45;;;;;;;10.49;48.72;102849.59;6338285;22;20015;-62
2022/04/28 05:50:45;;;;;;;22.02;12.13;;;;;;;10.52;48.87;102857.53;6285352;22;20023;-63
2022/04/28 05:53:17;;;;;;;17.73;11.75;;;;;;;10.56;48.78;102860.97;6285559;22;20019;-63
2022/04/28 05:55:46;;;;;;;17.70;11.07;;;;;;;10.61;49.00;102867.91;6310803;22;20453;-63
2022/04/28 05:58:13;;;;;;;21.27;11.02;;;;;;;10.66;49.04;102865.91;6310937;22;20026;-62
2022/04/28 06:00:48;;;;;;;18.73;10.77;;;;;;;10.71;49.13;102866.63;6310384;22;20022;-62
2022/04/28 06:03:15;;;;;;;23.00;11.25;;;;;;;10.78;49.10;102869.94;6310182;22;20095;-62
2022/04/28 06:05:56;;;;;;;20.52;11.10;;;;;;;10.84;49.23;102864.31;6310672;22;20019;-62
2022/04/28 06:08:27;;;;;;;23.50;11.52;;;;;;;10.93;49.30;102876.50;6309486;22;20389;-62
2022/04/28 06:10:57;;;;;;;22.30;12.30;;;;;;;11.01;49.43;102879.75;6310503;22;20026;-62
2022/04/28 06:13:27;;;;;;;21.83;11.65;;;;;;;11.08;49.51;102875.88;6309784;22;20068;-62
2022/04/28 06:16:12;;;;;;;19.15;11.32;;;;;;;11.18;49.50;102888.03;6338562;22;20044;-62
2022/04/28 06:18:52;;;;;;;16.98;10.20;;;;;;;11.30;49.46;102879.47;6287677;22;20015;-62
2022/04/28 06:21:43;;;;;;;25.67;11.73;;;;;;;11.45;49.42;102878.81;6338213;22;20411;-62
2022/04/28 06:24:12;;;;;;;19.60;11.23;;;;;;;11.57;49.40;102880.13;6310214;22;20018;-62
2022/04/28 06:26:39;;;;;;;15.85;10.15;;;;;;;11.69;49.36;102892.16;6310438;22;20015;-62
2022/04/28 06:29:06;;;;;;;17.27;10.93;;;;;;;11.83;49.40;102900.53;6310002;22;20434;-62
2022/04/28 06:31:38;;;;;;;16.85;9.98;;;;;;;11.97;49.57;102895.47;6310707;22;20056;-63
2022/04/28 06:34:27;;;;;;;20.20;10.32;;;;;;;12.13;49.32;102900.16;6338202;22;20023;-63
2022/04/28 06:36:54;;;;;;;22.52;10.50;;;;;;;12.26;49.10;102904.06;6311204;22;20072;-63
2022/04/28 06:39:26;;;;;;;14.52;9.73;;;;;;;12.42;49.04;102905.09;6309715;22;20448;-62
2022/04/28 06:41:57;;;;;;;19.48;9.65;;;;;;;12.58;49.24;102905.25;6337994;22;20015;-63
2022/04/28 06:44:44;;;;;;;19.10;10.40;;;;;;;12.80;49.13;102906.03;6338121;22;20327;-63
2022/04/28 06:47:30;;;;;;;14.77;9.73;;;;;;;12.99;48.86;102906.88;6338127;22;20027;-63
2022/04/28 06:50:20;;;;;;;15.18;9.27;;;;;;;13.16;48.74;102906.06;6338281;22;20029;-63
2022/04/28 06:53:05;;;;;;;21.80;9.77;;;;;;;13.37;48.45;102906.84;6338449;22;20030;-62
2022/04/28 06:55:34;;;;;;;19.70;9.15;;;;;;;13.53;48.37;102907.84;6310395;22;20014;-62
2022/04/28 06:58:01;;;;;;;16.55;9.85;;;;;;;13.68;48.34;102909.78;6310576;22;20117;-63
2022/04/28 07:00:35;;;;;;;18.55;9.65;;;;;;;13.81;48.04;102911.84;6310361;22;20018;-62
2022/04/28 07:03:01;;;;;;;15.48;8.75;;;;;;;13.97;47.95;102910.09;6310522;22;20459;-63
2022/04/28 07:05:30;;;;;;;12.30;8.23;;;;;;;14.14;47.59;102911.94;6310727;22;20015;-63
2022/04/28 07:07:59;;;;;;;14.35;9.48;;;;;;;14.27;47.34;102911.19;6310524;22;20098;-62
2022/04/28 07:10:38;;;;;;;14.10;8.63;;;;;;;14.42;47.11;102914.00;6310351;22;20340;-62
2022/04/28 07:13:04;;;;;;;18.73;8.70;;;;;;;14.54;46.89;102925.06;6310265;22;20022;-63
2022/04/28 07:15:49;;;;;;;16.60;8.82;;;;;;;14.65;46.68;102929.00;6337761;22;20088;-63
2022/04/28 07:18:39;;;;;;;21.92;8.82;;;;;;;14.78;46.61;102930.94;6278153;22;20021;-63
2022/04/28 07:21:10;;;;;;;12.50;8.05;;;;;;;14.88;46.34;102934.03;6309201;22;20018;-63
2022/04/28 07:23:38;;;;;;;15.85;8.80;;;;;;;15.01;46.18;102935.09;6336730;22;20341;-63
2022/04/28 07:26:08;;;;;;;18.85;8.13;;;;;;;15.16;45.82;102936.06;6308738;22;20026;-63
2022/04/28 07:28:35;;;;;;;14.32;7.60;;;;;;;15.28;45.83;102935.34;6337065;22;20090;-62
2022/04/28 07:31:04;;;;;;;13.48;8.27;;;;;;;15.39;45.52;102935.59;6337222;22;20030;-63
2022/04/28 07:33:50;;;;;;;13.15;7.38;;;;;;;15.48;45.53;102943.19;6336638;22;20417;-63
2022/04/28 07:36:34;;;;;;;16.75;7.55;;;;;;;15.66;45.45;102944.00;6336937;22;20455;-63
2022/04/28 07:39:19;;;;;;;14.43;7.93;;;;;;;15.83;45.23;102949.28;6337332;22;20050;-63
2022/04/28 07:42:07;;;;;;;14.18;7.82;;;;;;;16.00;44.99;102950.09;6308447;22;20314;-63
2022/04/28 07:44:37;;;;;;;14.45;7.38;;;;;;;16.12;44.84;102952.94;6308907;22;20011;-63
2022/04/28 07:47:06;;;;;;;14.85;8.07;;;;;;;16.29;44.70;102951.91;6336570;22;20044;-63
2022/04/28 07:49:37;;;;;;;13.93;7.80;;;;;;;16.44;44.27;102953.69;6308780;22;20019;-63
2022/04/28 07:52:09;;;;;;;13.80;7.88;;;;;;;16.57;44.03;102955.63;6308968;22;20025;-63
2022/04/28 07:54:37;;;;;;;16.63;7.72;;;;;;;16.67;43.55;102954.13;6283253;22;20041;-63
2022/04/28 07:57:05;;;;;;;12.98;7.78;;;;;;;16.74;43.69;102953.63;6308811;22;20019;-63
2022/04/28 07:59:32;;;;;;;13.00;8.38;;;;;;;16.82;43.62;102959.44;6308706;22;20056;-64
2022/04/28 08:02:11;;;;;;;14.18;7.45;;;;;;;16.93;43.33;102945.19;6284774;22;20054;-63
2022/04/28 08:04:40;;;;;;;16.17;7.70;;;;;;;17.00;43.15;102953.81;6308632;22;20063;-63
2022/04/28 08:07:08;;;;;;;14.20;8.23;;;;;;;17.06;43.06;102953.41;6308858;22;20049;-63
2022/04/28 08:09:36;;;;;;;14.07;7.85;;;;;;;17.10;42.84;102958.56;6336082;22;20011;-61
2022/04/28 08:12:07;;;;;;;13.45;7.28;;;;;;;17.19;42.38;102951.66;6308286;22;20441;-62
2022/04/28 08:14:54;;;;;;;17.73;8.02;;;;;;;17.36;42.36;102956.84;6309290;22;20019;-62
2022/04/28 08:17:21;;;;;;;15.38;7.53;;;;;;;17.48;42.35;102960.59;6336341;22;20060;-61
2022/04/28 08:19:49;;;;;;;16.52;8.38;;;;;;;17.64;42.30;102960.44;6308808;22;20090;-62
2022/04/28 08:22:18;;;;;;;15.43;7.38;;;;;;;17.76;42.18;102965.94;6309002;22;20345;-62
2022/04/28 08:24:44;;;;;;;14.20;7.72;;;;;;;17.85;41.95;102966.31;6308351;22;20015;-62
2022/04/28 08:27:11;;;;;;;12.90;6.47;;;;;;;17.94;41.38;102966.56;6308769;22;20015;-62
2022/04/28 08:29:38;;;;;;;13.85;6.97;;;;;;;18.05;41.55;102976.69;6308133;22;20114;-62
2022/04/28 08:32:18;;;;;;;12.15;7.80;;;;;;;18.15;41.27;102975.09;6308597;22;20010;-62
2022/04/28 08:34:44;;;;;;;11.70;6.32;;;;;;;18.27;40.89;102974.22;6308573;22;20021;-62
2022/04/28 08:37:11;;;;;;;12.40;6.47;;;;;;;18.35;40.44;102977.28;6308902;22;20106;-62
2022/04/28 08:39:38;;;;;;;10.35;6.43;;;;;;;18.41;40.31;102975.97;6310227;22;20026;-62
2022/04/28 08:42:11;;;;;;;12.85;6.90;;;;;;;18.51;40.11;102971.63;6284904;22;20445;-62
2022/04/28 08:44:55;;;;;;;13.35;6.97;;;;;;;18.70;40.00;102982.13;6310578;22;20450;-62
2022/04/28 08:47:36;;;;;;;10.40;6.38;;;;;;;18.83;40.09;102979.41;6338139;22;20019;-62
2022/04/28 08:50:40;;;;;;;13.55;7.00;;;;;;;18.93;39.56;102986.78;6285009;22;20030;-62
2022/04/28 08:53:09;;;;;;;11.75;6.65;;;;;;;19.00;39.80;102979.91;6309986;22;20015;-62
2022/04/28 08:55:40;;;;;;;11.32;6.82;;;;;;;19.09;39.58;102985.66;6310050;22;20042;-62
2022/04/28 08:58:08;;;;;;;8.27;6.85;;;;;;;19.14;38.94;102984.34;6309844;22;20023;-62
2022/04/28 09:00:45;;;;;;;15.13;7.32;;;;;;;19.18;38.85;102974.97;6310562;22;20080;-62
2022/04/28 09:03:24;;;;;;;14.35;7.75;;;;;;;19.20;38.78;102981.16;6336358;22;20389;-62
2022/04/28 09:06:22;;;;;;;13.25;6.05;;;;;;;19.25;38.99;102986.28;6336604;22;20330;-62
2022/04/28 09:09:16;;;;;;;14.63;6.32;;;;;;;19.32;38.60;102974.84;6336929;22;20102;-61
2022/04/28 09:12:06;;;;;;;10.82;6.00;;;;;;;19.48;38.44;102974.56;6337624;22;20030;-63
2022/04/28 09:14:55;;;;;;;15.60;6.65;;;;;;;19.64;38.16;102975.19;6337043;22;20041;-63
2022/04/28 09:17:40;;;;;;;11.18;5.88;;;;;;;19.74;37.80;102977.22;6309959;22;20018;-63
2022/04/28 09:22:42;;;;;;;13.73;7.18;;;;;;;19.88;37.30;102977.88;6309441;22;20046;-62
2022/04/28 09:25:13;;;;;;;13.93;6.57;;;;;;;19.97;37.54;102977.19;6310055;22;20105;-62
2022/04/28 09:27:40;;;;;;;11.15;6.30;;;;;;;20.07;37.42;102971.03;6337364;22;20018;-62
2022/04/28 09:30:13;;;;;;;12.95;6.25;;;;;;;20.12;36.88;102974.28;6337379;22;20063;-63
2022/04/28 09:32:54;;;;;;;11.00;6.50;;;;;;;20.17;36.69;102972.06;6309747;22;20022;-62
2022/04/28 09:35:49;;;;;;;10.80;6.28;;;;;;;20.16;36.37;102965.75;6336873;22;20103;-63
2022/04/28 09:38:26;;;;;;;12.02;6.18;;;;;;;20.19;36.50;102962.78;6309657;22;20014;-62
2022/04/28 09:44:01;;;;;;;10.15;5.95;;;;;;;20.29;36.25;102971.97;6309149;22;20025;-63
2022/04/28 09:46:40;;;;;;;10.13;5.88;;;;;;;20.35;36.01;102965.16;6309197;22;20015;-62
2022/04/28 09:49:10;;;;;;;11.45;6.35;;;;;;;20.43;35.76;102968.19;6309722;22;20495;-62
2022/04/28 09:52:00;;;;;;;9.85;5.72;;;;;;;20.56;35.94;102962.63;6272450;22;20030;-62
2022/04/28 09:54:47;;;;;;;11.13;5.47;;;;;;;20.63;35.55;102958.41;6309002;22;20019;-62
2022/04/28 09:57:15;;;;;;;10.55;5.72;;;;;;;20.68;35.47;102961.63;6309505;22;20019;-62
2022/04/28 09:59:42;;;;;;;11.00;6.05;;;;;;;20.73;35.27;102950.34;6309277;22;20023;-62
2022/04/28 10:02:17;;;;;;;11.05;6.03;;;;;;;20.78;34.90;102948.97;6337112;22;20011;-63
2022/04/28 10:04:46;;;;;;;11.27;5.65;;;;;;;20.89;34.91;102942.66;6309494;22;20057;-62
2022/04/28 10:07:36;;;;;;;12.73;6.25;;;;;;;21.05;34.90;102943.13;6323912;22;20094;-63
2022/04/28 10:10:04;;;;;;;8.57;5.00;;;;;;;21.15;34.56;102951.44;6308538;22;20026;-62
2022/04/28 10:12:36;;;;;;;12.00;6.10;;;;;;;21.15;34.33;102952.31;6283683;22;20445;-62
2022/04/28 10:15:24;;;;;;;9.10;5.68;;;;;;;21.15;34.45;102948.72;6288206;22;20019;-62
2022/04/28 10:18:01;;;;;;;11.70;5.97;;;;;;;21.22;34.36;102937.16;6337198;22;20018;-62
2022/04/28 10:20:36;;;;;;;15.60;6.43;;;;;;;21.35;34.32;102945.22;6309217;22;20019;-62
2022/04/28 10:32:22;;;;;;;17.20;6.53;;;;;;;21.48;34.11;102942.31;6309575;22;20018;-64
2022/04/28 10:32:25;;;;;;;10.05;5.55;;;;;;;21.77;33.84;102934.41;6336954;22;20405;-64
2022/04/28 10:35:04;;;;;;;8.23;5.70;;;;;;;21.79;33.88;102926.94;6337008;22;20452;-64
2022/04/28 10:37:39;;;;;;;9.80;5.15;;;;;;;21.86;33.63;102930.88;6308939;22;20015;-65
2022/04/28 10:40:21;;;;;;;11.40;6.18;;;;;;;21.93;33.10;102931.22;6336836;22;20018;-64
2022/04/28 10:42:47;;;;;;;11.40;5.57;;;;;;;22.00;33.31;102922.34;6336755;22;20010;-65
2022/04/28 10:45:20;;;;;;;11.43;5.80;;;;;;;22.14;33.17;102927.50;6336541;22;20332;-64
2022/04/28 10:47:47;;;;;;;8.82;5.53;;;;;;;22.24;32.81;102923.97;6336570;22;20021;-65
2022/04/28 10:50:32;;;;;;;10.85;5.93;;;;;;;22.24;32.67;102916.63;6336765;22;20162;-65
2022/04/28 10:53:06;;;;;;;9.67;5.67;;;;;;;22.34;32.69;102914.84;6337077;22;20045;-64
2022/04/28 10:55:39;;;;;;;8.55;5.35;;;;;;;22.47;32.46;102917.34;6336034;22;20018;-64
2022/04/28 10:58:23;;;;;;;9.00;5.88;;;;;;;22.50;32.26;102911.59;6336582;22;20018;-65
2022/04/28 11:00:59;;;;;;;10.18;6.35;;;;;;;22.45;31.71;102919.38;6336698;22;20345;-65
2022/04/28 11:03:58;;;;;;;13.85;6.60;;;;;;;22.41;32.12;102917.91;6336653;22;20023;-65
2022/04/28 11:06:34;;;;;;;15.88;6.22;;;;;;;22.51;32.04;102913.34;6336746;22;20092;-65
2022/04/28 11:09:05;;;;;;;8.70;5.78;;;;;;;22.61;31.76;102910.63;6336447;22;20022;-66
2022/04/28 11:11:46;;;;;;;8.25;5.32;;;;;;;22.66;32.04;102911.97;6336448;22;20015;-65
2022/04/28 11:14:15;;;;;;;10.05;5.55;;;;;;;22.72;31.60;102914.16;6335790;22;20014;-65
2022/04/28 11:16:42;;;;;;;8.95;5.85;;;;;;;22.76;31.69;102906.53;6336557;22;20007;-65
2022/04/28 11:19:11;;;;;;;17.23;5.68;;;;;;;22.79;31.57;102901.63;6309414;22;20022;-65
2022/04/28 11:21:43;;;;;;;11.63;5.75;;;;;;;22.87;31.51;102908.31;6336546;22;20061;-65
2022/04/28 11:24:10;;;;;;;12.18;5.88;;;;;;;22.91;31.38;102891.47;6308979;22;20023;-65
2022/04/28 11:26:42;;;;;;;9.25;6.18;;;;;;;22.98;31.33;102900.84;6308343;22;20014;-65
2022/04/28 11:29:23;;;;;;;10.00;5.38;;;;;;;23.03;31.40;102898.56;6307350;22;20081;-65
2022/04/28 11:31:53;;;;;;;9.85;5.95;;;;;;;23.08;30.88;102906.38;6336322;22;20029;-65
2022/04/28 11:34:20;;;;;;;9.63;6.10;;;;;;;23.12;30.94;102895.00;6336264;22;20018;-65
2022/04/28 11:36:47;;;;;;;9.68;5.82;;;;;;;23.17;30.62;102897.31;6309036;22;20010;-65
2022/04/28 11:39:14;;;;;;;10.90;5.18;;;;;;;23.24;30.92;102893.00;6282666;22;20174;-65
2022/04/28 11:41:43;;;;;;;9.13;5.63;;;;;;;23.35;31.04;102901.09;6336334;22;20021;-65
2022/04/28 11:44:13;;;;;;;14.50;5.97;;;;;;;23.49;30.81;102893.44;6336447;22;20021;-65
2022/04/28 11:46:51;;;;;;;10.57;5.88;;;;;;;23.52;30.53;102898.66;6336547;22;20318;-64
2022/04/28 11:49:19;;;;;;;10.52;5.72;;;;;;;23.54;30.32;102904.84;6336416;22;20015;-65
2022/04/28 11:51:51;;;;;;;10.20;5.50;;;;;;;23.52;30.26;102898.66;6308511;22;20337;-65
2022/04/28 11:54:21;;;;;;;8.50;5.20;;;;;;;23.56;30.14;102898.25;6336644;22;20032;-65
2022/04/28 11:56:48;;;;;;;13.07;5.45;;;;;;;23.60;29.89;102894.19;6336480;22;20011;-65
2022/04/28 11:59:15;;;;;;;9.05;5.68;;;;;;;23.65;30.11;102897.38;6336069;22;20018;-64
2022/04/28 12:01:46;;;;;;;7.85;5.13;;;;;;;23.75;29.94;102898.22;6336506;22;20014;-65
2022/04/28 12:04:16;;;;;;;12.00;6.10;;;;;;;23.88;29.72;102900.72;6336032;22;20025;-65
2022/04/28 12:06:47;;;;;;;9.90;5.45;;;;;;;23.95;29.48;102895.50;6335727;22;20034;-65
2022/04/28 12:14:50;;;;;;;10.35;5.35;;;;;;;23.85;29.37;102905.63;6337383;22;20015;-65
2022/04/28 12:20:04;;;;;;;7.78;5.82;;;;;;;23.90;29.11;102890.44;6337651;22;20068;-65
2022/04/28 12:22:39;;;;;;;9.95;5.63;;;;;;;23.93;29.07;102892.91;6338493;22;20022;-65
2022/04/28 12:25:15;;;;;;;;;;;;;;;23.96;29.40;102886.25;6338221;22;20017;-65
2022/04/28 12:27:45;;;;;;;9.60;4.90;;;;;;;24.19;29.44;102895.00;6338267;22;19914;-65
2022/04/28 12:30:16;;;;;;;8.00;5.28;;;;;;;24.32;29.15;102888.22;6339362;22;20053;-66